Alpha, Illinois
Current Conditions -  °F | °C
As of 9:52 PM on Wednesday 28 Jan 2015 (Local Time) from KMLI Reporting Station
Clear Clear  
Wind Chill: 30°   Ceiling: Unl
Heat Index: 37°   Visibility: 10mi
Dew Point: 30°   Wind: 9mph
Humidity: 76%   Direction: 120°ESE
Pressure: 29.73"   Gusts: NA
Location:  41.19°N, 90.38°W
Report Text: KMLI 290352Z 12008KT 10SM CLR 03/M01 A2973 RMK AO2 SLP073 T00281011
Loading
Personal Weather Stations






























Interactive Weather Map New forecast layout! Learn more

10-Day Weather Forecast

Advertisements
Track Severe Weather on mobile